sensor_id;sensor_type;location;lat;lon;timestamp;temperature;humidity
39189;DHT22;24915;50.858;4.376;2023-07-31T00:00:06;17.10;99.90
39189;DHT22;24915;50.858;4.376;2023-07-31T00:02:34;17.10;99.90
39189;DHT22;24915;50.858;4.376;2023-07-31T00:05:01;17.10;99.90
39189;DHT22;24915;50.858;4.376;2023-07-31T00:07:26;17.10;99.90
39189;DHT22;24915;50.858;4.376;2023-07-31T00:09:52;17.10;99.90
39189;DHT22;24915;50.858;4.376;2023-07-31T00:12:19;17.10;99.90
39189;DHT22;24915;50.858;4.376;2023-07-31T00:14:45;17.20;99.90
39189;DHT22;24915;50.858;4.376;2023-07-31T00:17:11;17.20;99.90
39189;DHT22;24915;50.858;4.376;2023-07-31T00:19:37;17.20;99.90
39189;DHT22;24915;50.858;4.376;2023-07-31T00:22:03;17.20;99.90
39189;DHT22;24915;50.858;4.376;2023-07-31T00:24:28;17.20;99.90
39189;DHT22;24915;50.858;4.376;2023-07-31T00:26:54;17.20;99.90
39189;DHT22;24915;50.858;4.376;2023-07-31T00:29:20;17.20;99.90
39189;DHT22;24915;50.858;4.376;2023-07-31T00:31:45;17.20;99.90
39189;DHT22;24915;50.858;4.376;2023-07-31T00:34:11;17.20;99.90
39189;DHT22;24915;50.858;4.376;2023-07-31T00:36:37;17.20;99.90
39189;DHT22;24915;50.858;4.376;2023-07-31T00:39:02;17.20;99.90
39189;DHT22;24915;50.858;4.376;2023-07-31T00:41:28;17.20;99.90
39189;DHT22;24915;50.858;4.376;2023-07-31T00:43:54;17.30;99.90
39189;DHT22;24915;50.858;4.376;2023-07-31T00:46:20;17.30;99.90
39189;DHT22;24915;50.858;4.376;2023-07-31T00:48:46;17.30;99.90
39189;DHT22;24915;50.858;4.376;2023-07-31T00:51:12;17.30;99.90
39189;DHT22;24915;50.858;4.376;2023-07-31T00:53:37;17.30;99.90
39189;DHT22;24915;50.858;4.376;2023-07-31T00:56:04;17.30;99.90
39189;DHT22;24915;50.858;4.376;2023-07-31T00:58:30;17.30;99.90
39189;DHT22;24915;50.858;4.376;2023-07-31T01:00:56;17.30;99.90
39189;DHT22;24915;50.858;4.376;2023-07-31T01:03:22;17.30;99.90
39189;DHT22;24915;50.858;4.376;2023-07-31T01:08:45;17.30;99.90
39189;DHT22;24915;50.858;4.376;2023-07-31T01:11:22;17.30;99.90
39189;DHT22;24915;50.858;4.376;2023-07-31T01:13:50;17.40;99.90
39189;DHT22;24915;50.858;4.376;2023-07-31T01:16:15;17.30;99.90
39189;DHT22;24915;50.858;4.376;2023-07-31T01:18:41;17.40;99.90
39189;DHT22;24915;50.858;4.376;2023-07-31T01:24:03;17.40;99.90
39189;DHT22;24915;50.858;4.376;2023-07-31T01:26:34;17.40;99.90
39189;DHT22;24915;50.858;4.376;2023-07-31T01:29:16;17.30;99.90
39189;DHT22;24915;50.858;4.376;2023-07-31T01:31:45;17.40;99.90
39189;DHT22;24915;50.858;4.376;2023-07-31T01:34:14;17.40;99.90
39189;DHT22;24915;50.858;4.376;2023-07-31T01:36:43;17.40;99.90
39189;DHT22;24915;50.858;4.376;2023-07-31T01:39:08;17.40;99.90
39189;DHT22;24915;50.858;4.376;2023-07-31T01:41:34;17.30;99.90
39189;DHT22;24915;50.858;4.376;2023-07-31T01:44:00;17.30;99.90
39189;DHT22;24915;50.858;4.376;2023-07-31T01:46:25;17.30;99.90
39189;DHT22;24915;50.858;4.376;2023-07-31T01:48:51;17.40;99.90
39189;DHT22;24915;50.858;4.376;2023-07-31T01:51:17;17.30;99.90
39189;DHT22;24915;50.858;4.376;2023-07-31T01:53:42;17.30;99.90
39189;DHT22;24915;50.858;4.376;2023-07-31T01:56:08;17.40;99.90
39189;DHT22;24915;50.858;4.376;2023-07-31T01:58:34;17.40;99.90
39189;DHT22;24915;50.858;4.376;2023-07-31T02:00:59;17.40;99.90
39189;DHT22;24915;50.858;4.376;2023-07-31T02:03:25;17.40;99.90
39189;DHT22;24915;50.858;4.376;2023-07-31T02:05:51;17.40;99.90
39189;DHT22;24915;50.858;4.376;2023-07-31T02:08:16;17.40;99.90
39189;DHT22;24915;50.858;4.376;2023-07-31T02:10:42;17.40;99.90
39189;DHT22;24915;50.858;4.376;2023-07-31T02:13:08;17.30;99.90
39189;DHT22;24915;50.858;4.376;2023-07-31T02:15:34;17.30;99.90
39189;DHT22;24915;50.858;4.376;2023-07-31T02:18:00;17.30;99.90
39189;DHT22;24915;50.858;4.376;2023-07-31T02:20:25;17.40;99.90
39189;DHT22;24915;50.858;4.376;2023-07-31T02:22:51;17.40;99.90
39189;DHT22;24915;50.858;4.376;2023-07-31T02:25:17;17.40;99.90
39189;DHT22;24915;50.858;4.376;2023-07-31T02:27:42;17.30;99.90
39189;DHT22;24915;50.858;4.376;2023-07-31T02:30:08;17.40;99.90
39189;DHT22;24915;50.858;4.376;2023-07-31T02:32:34;17.30;99.90
39189;DHT22;24915;50.858;4.376;2023-07-31T02:35:00;17.40;99.90
39189;DHT22;24915;50.858;4.376;2023-07-31T02:37:26;17.40;99.90
39189;DHT22;24915;50.858;4.376;2023-07-31T02:39:51;17.40;99.90
39189;DHT22;24915;50.858;4.376;2023-07-31T02:42:17;17.40;99.90
39189;DHT22;24915;50.858;4.376;2023-07-31T02:44:43;17.40;99.90
39189;DHT22;24915;50.858;4.376;2023-07-31T02:47:09;17.40;99.90
39189;DHT22;24915;50.858;4.376;2023-07-31T02:49:34;17.40;99.90
39189;DHT22;24915;50.858;4.376;2023-07-31T02:52:00;17.40;99.90
39189;DHT22;24915;50.858;4.376;2023-07-31T02:54:25;17.40;99.90
39189;DHT22;24915;50.858;4.376;2023-07-31T02:56:51;17.40;99.90
39189;DHT22;24915;50.858;4.376;2023-07-31T02:59:17;17.40;99.90
39189;DHT22;24915;50.858;4.376;2023-07-31T03:01:43;17.40;99.90
39189;DHT22;24915;50.858;4.376;2023-07-31T03:04:09;17.40;99.90
39189;DHT22;24915;50.858;4.376;2023-07-31T03:06:35;17.40;99.90
39189;DHT22;24915;50.858;4.376;2023-07-31T03:09:00;17.40;99.90
39189;DHT22;24915;50.858;4.376;2023-07-31T03:11:26;17.40;99.90
39189;DHT22;24915;50.858;4.376;2023-07-31T03:13:52;17.40;99.90
39189;DHT22;24915;50.858;4.376;2023-07-31T03:16:17;17.40;99.90
39189;DHT22;24915;50.858;4.376;2023-07-31T03:18:43;17.40;99.90
39189;DHT22;24915;50.858;4.376;2023-07-31T03:21:08;17.40;99.90
39189;DHT22;24915;50.858;4.376;2023-07-31T03:23:34;17.40;99.90
39189;DHT22;24915;50.858;4.376;2023-07-31T03:26:01;17.30;99.90
39189;DHT22;24915;50.858;4.376;2023-07-31T03:28:28;17.30;99.90
39189;DHT22;24915;50.858;4.376;2023-07-31T03:30:54;17.30;99.90
39189;DHT22;24915;50.858;4.376;2023-07-31T03:33:20;17.30;99.90
39189;DHT22;24915;50.858;4.376;2023-07-31T03:35:46;17.30;99.90
39189;DHT22;24915;50.858;4.376;2023-07-31T03:38:11;17.20;99.90
39189;DHT22;24915;50.858;4.376;2023-07-31T03:40:37;17.20;99.90
39189;DHT22;24915;50.858;4.376;2023-07-31T03:43:03;17.20;99.90
39189;DHT22;24915;50.858;4.376;2023-07-31T03:45:28;17.20;99.90
39189;DHT22;24915;50.858;4.376;2023-07-31T03:47:54;17.10;99.90
39189;DHT22;24915;50.858;4.376;2023-07-31T03:50:20;17.20;99.90
39189;DHT22;24915;50.858;4.376;2023-07-31T03:52:46;17.10;99.90
39189;DHT22;24915;50.858;4.376;2023-07-31T03:55:12;17.10;99.90
39189;DHT22;24915;50.858;4.376;2023-07-31T03:57:37;17.10;99.90
39189;DHT22;24915;50.858;4.376;2023-07-31T04:00:03;17.10;99.90
39189;DHT22;24915;50.858;4.376;2023-07-31T04:02:29;17.10;99.90
39189;DHT22;24915;50.858;4.376;2023-07-31T04:04:55;17.10;99.90
39189;DHT22;24915;50.858;4.376;2023-07-31T04:07:20;17.10;99.90
39189;DHT22;24915;50.858;4.376;2023-07-31T04:09:46;17.10;99.90
39189;DHT22;24915;50.858;4.376;2023-07-31T04:12:11;17.10;99.90
39189;DHT22;24915;50.858;4.376;2023-07-31T04:14:37;17.10;99.90
39189;DHT22;24915;50.858;4.376;2023-07-31T04:17:03;17.10;99.90
39189;DHT22;24915;50.858;4.376;2023-07-31T04:19:28;17.00;99.90
39189;DHT22;24915;50.858;4.376;2023-07-31T04:21:54;17.00;99.90
39189;DHT22;24915;50.858;4.376;2023-07-31T04:24:20;17.00;99.90
39189;DHT22;24915;50.858;4.376;2023-07-31T04:26:53;17.00;99.90
39189;DHT22;24915;50.858;4.376;2023-07-31T04:29:19;17.00;99.90
39189;DHT22;24915;50.858;4.376;2023-07-31T04:31:45;17.00;99.90
39189;DHT22;24915;50.858;4.376;2023-07-31T04:34:11;17.00;99.90
39189;DHT22;24915;50.858;4.376;2023-07-31T04:36:39;17.00;99.90
39189;DHT22;24915;50.858;4.376;2023-07-31T04:39:05;17.00;99.90
39189;DHT22;24915;50.858;4.376;2023-07-31T04:41:30;17.00;99.90
39189;DHT22;24915;50.858;4.376;2023-07-31T04:43:56;17.10;99.90
39189;DHT22;24915;50.858;4.376;2023-07-31T04:46:22;17.10;99.90
39189;DHT22;24915;50.858;4.376;2023-07-31T04:48:47;17.10;99.90
39189;DHT22;24915;50.858;4.376;2023-07-31T04:51:13;17.10;99.90
39189;DHT22;24915;50.858;4.376;2023-07-31T04:53:39;17.10;99.90
39189;DHT22;24915;50.858;4.376;2023-07-31T04:56:04;17.10;99.90
39189;DHT22;24915;50.858;4.376;2023-07-31T04:58:30;17.10;99.90
39189;DHT22;24915;50.858;4.376;2023-07-31T05:00:55;17.10;99.90
39189;DHT22;24915;50.858;4.376;2023-07-31T05:03:21;17.10;99.90
39189;DHT22;24915;50.858;4.376;2023-07-31T05:05:47;17.10;99.90
39189;DHT22;24915;50.858;4.376;2023-07-31T05:08:13;17.10;99.90
39189;DHT22;24915;50.858;4.376;2023-07-31T05:10:38;17.10;99.90
39189;DHT22;24915;50.858;4.376;2023-07-31T05:13:04;17.10;99.90
39189;DHT22;24915;50.858;4.376;2023-07-31T05:15:31;17.00;99.90
39189;DHT22;24915;50.858;4.376;2023-07-31T05:17:56;16.90;99.90
39189;DHT22;24915;50.858;4.376;2023-07-31T05:20:22;16.80;99.90
39189;DHT22;24915;50.858;4.376;2023-07-31T05:22:47;16.70;99.90
39189;DHT22;24915;50.858;4.376;2023-07-31T05:25:13;16.70;99.90
39189;DHT22;24915;50.858;4.376;2023-07-31T05:27:39;16.70;99.90
39189;DHT22;24915;50.858;4.376;2023-07-31T05:30:05;16.60;99.90
39189;DHT22;24915;50.858;4.376;2023-07-31T05:32:31;16.60;99.90
39189;DHT22;24915;50.858;4.376;2023-07-31T05:34:56;16.60;99.90
39189;DHT22;24915;50.858;4.376;2023-07-31T05:37:22;16.60;99.90
39189;DHT22;24915;50.858;4.376;2023-07-31T05:39:48;16.60;99.90
39189;DHT22;24915;50.858;4.376;2023-07-31T05:42:13;16.60;99.90
39189;DHT22;24915;50.858;4.376;2023-07-31T05:44:39;16.60;99.90
39189;DHT22;24915;50.858;4.376;2023-07-31T05:47:05;16.60;99.90
39189;DHT22;24915;50.858;4.376;2023-07-31T05:49:30;16.70;99.90
39189;DHT22;24915;50.858;4.376;2023-07-31T05:51:56;16.70;99.90
39189;DHT22;24915;50.858;4.376;2023-07-31T05:54:21;16.70;99.90
39189;DHT22;24915;50.858;4.376;2023-07-31T05:56:47;16.70;99.90
39189;DHT22;24915;50.858;4.376;2023-07-31T05:59:13;16.70;99.90
39189;DHT22;24915;50.858;4.376;2023-07-31T06:01:39;16.70;99.90
39189;DHT22;24915;50.858;4.376;2023-07-31T06:04:04;16.70;99.90
39189;DHT22;24915;50.858;4.376;2023-07-31T06:06:30;16.70;99.90
39189;DHT22;24915;50.858;4.376;2023-07-31T06:08:56;16.80;99.90
39189;DHT22;24915;50.858;4.376;2023-07-31T06:11:22;16.80;99.90
39189;DHT22;24915;50.858;4.376;2023-07-31T06:13:48;16.80;99.90
39189;DHT22;24915;50.858;4.376;2023-07-31T06:16:15;16.80;99.90
39189;DHT22;24915;50.858;4.376;2023-07-31T06:18:41;16.80;99.90
39189;DHT22;24915;50.858;4.376;2023-07-31T06:21:08;16.80;99.90
39189;DHT22;24915;50.858;4.376;2023-07-31T06:23:34;16.80;99.90
39189;DHT22;24915;50.858;4.376;2023-07-31T06:25:59;16.80;99.90
39189;DHT22;24915;50.858;4.376;2023-07-31T06:28:29;16.90;99.90
39189;DHT22;24915;50.858;4.376;2023-07-31T06:30:55;16.90;99.90
39189;DHT22;24915;50.858;4.376;2023-07-31T06:33:20;16.90;99.90
39189;DHT22;24915;50.858;4.376;2023-07-31T06:35:46;16.90;99.90
39189;DHT22;24915;50.858;4.376;2023-07-31T06:38:12;16.90;99.90
39189;DHT22;24915;50.858;4.376;2023-07-31T06:40:37;17.00;99.90
39189;DHT22;24915;50.858;4.376;2023-07-31T06:43:03;17.00;99.90
39189;DHT22;24915;50.858;4.376;2023-07-31T06:45:37;17.00;99.90
39189;DHT22;24915;50.858;4.376;2023-07-31T06:48:03;17.00;99.90
39189;DHT22;24915;50.858;4.376;2023-07-31T06:50:30;17.10;99.90
39189;DHT22;24915;50.858;4.376;2023-07-31T06:52:56;17.10;99.90
39189;DHT22;24915;50.858;4.376;2023-07-31T06:55:21;17.10;99.90
39189;DHT22;24915;50.858;4.376;2023-07-31T06:57:52;17.20;99.90
39189;DHT22;24915;50.858;4.376;2023-07-31T07:00:19;17.20;99.90
39189;DHT22;24915;50.858;4.376;2023-07-31T07:02:45;17.30;99.90
39189;DHT22;24915;50.858;4.376;2023-07-31T07:05:13;17.30;99.90
39189;DHT22;24915;50.858;4.376;2023-07-31T07:07:39;17.30;99.90
39189;DHT22;24915;50.858;4.376;2023-07-31T07:10:05;17.40;99.90
39189;DHT22;24915;50.858;4.376;2023-07-31T07:12:31;17.50;99.90
39189;DHT22;24915;50.858;4.376;2023-07-31T07:14:58;17.50;99.90
39189;DHT22;24915;50.858;4.376;2023-07-31T07:17:25;17.50;99.90
39189;DHT22;24915;50.858;4.376;2023-07-31T07:19:50;17.60;99.90
39189;DHT22;24915;50.858;4.376;2023-07-31T07:22:17;17.60;99.90
39189;DHT22;24915;50.858;4.376;2023-07-31T07:24:42;17.70;99.90
39189;DHT22;24915;50.858;4.376;2023-07-31T07:27:08;17.70;99.90
39189;DHT22;24915;50.858;4.376;2023-07-31T07:29:34;17.70;99.90
39189;DHT22;24915;50.858;4.376;2023-07-31T07:32:00;17.70;99.90
39189;DHT22;24915;50.858;4.376;2023-07-31T07:34:27;17.60;99.90
39189;DHT22;24915;50.858;4.376;2023-07-31T07:36:53;17.70;99.90
39189;DHT22;24915;50.858;4.376;2023-07-31T07:39:19;17.60;99.90
39189;DHT22;24915;50.858;4.376;2023-07-31T07:41:46;17.70;99.90
39189;DHT22;24915;50.858;4.376;2023-07-31T07:44:12;17.70;99.90
39189;DHT22;24915;50.858;4.376;2023-07-31T07:46:38;17.70;99.90
39189;DHT22;24915;50.858;4.376;2023-07-31T07:49:04;17.80;99.90
39189;DHT22;24915;50.858;4.376;2023-07-31T07:51:30;17.80;99.90
39189;DHT22;24915;50.858;4.376;2023-07-31T07:53:57;17.80;99.90
39189;DHT22;24915;50.858;4.376;2023-07-31T07:56:25;17.80;99.90
39189;DHT22;24915;50.858;4.376;2023-07-31T07:58:50;17.90;99.90
39189;DHT22;24915;50.858;4.376;2023-07-31T08:01:16;17.90;99.90
39189;DHT22;24915;50.858;4.376;2023-07-31T08:03:42;17.80;99.90
39189;DHT22;24915;50.858;4.376;2023-07-31T08:06:08;17.90;99.90
39189;DHT22;24915;50.858;4.376;2023-07-31T08:08:37;17.90;99.90
39189;DHT22;24915;50.858;4.376;2023-07-31T08:11:03;17.90;99.90
39189;DHT22;24915;50.858;4.376;2023-07-31T08:13:29;17.90;99.90
39189;DHT22;24915;50.858;4.376;2023-07-31T08:15:55;17.90;99.90
39189;DHT22;24915;50.858;4.376;2023-07-31T08:18:20;17.90;99.90
39189;DHT22;24915;50.858;4.376;2023-07-31T08:20:46;17.90;99.90
39189;DHT22;24915;50.858;4.376;2023-07-31T08:23:12;17.90;99.90
39189;DHT22;24915;50.858;4.376;2023-07-31T08:25:38;17.80;99.90
39189;DHT22;24915;50.858;4.376;2023-07-31T08:28:05;17.80;99.90
39189;DHT22;24915;50.858;4.376;2023-07-31T08:30:31;17.80;99.90
39189;DHT22;24915;50.858;4.376;2023-07-31T08:32:57;17.70;99.90
39189;DHT22;24915;50.858;4.376;2023-07-31T08:35:24;17.60;99.90
39189;DHT22;24915;50.858;4.376;2023-07-31T08:37:49;17.60;99.90
39189;DHT22;24915;50.858;4.376;2023-07-31T08:40:15;17.60;99.90
39189;DHT22;24915;50.858;4.376;2023-07-31T08:42:45;17.60;99.90
39189;DHT22;24915;50.858;4.376;2023-07-31T08:45:14;17.60;99.90
39189;DHT22;24915;50.858;4.376;2023-07-31T08:47:44;17.60;99.90
39189;DHT22;24915;50.858;4.376;2023-07-31T08:50:12;17.60;99.90
39189;DHT22;24915;50.858;4.376;2023-07-31T08:52:38;17.70;99.90
39189;DHT22;24915;50.858;4.376;2023-07-31T08:55:05;17.70;99.90
39189;DHT22;24915;50.858;4.376;2023-07-31T08:57:31;17.60;99.90
39189;DHT22;24915;50.858;4.376;2023-07-31T08:59:59;17.70;99.90
39189;DHT22;24915;50.858;4.376;2023-07-31T09:02:25;17.70;99.90
39189;DHT22;24915;50.858;4.376;2023-07-31T09:04:54;17.70;99.90
39189;DHT22;24915;50.858;4.376;2023-07-31T09:07:21;17.70;99.90
39189;DHT22;24915;50.858;4.376;2023-07-31T09:09:47;17.70;99.90
39189;DHT22;24915;50.858;4.376;2023-07-31T09:12:12;17.70;99.90
39189;DHT22;24915;50.858;4.376;2023-07-31T09:14:38;17.80;99.90
39189;DHT22;24915;50.858;4.376;2023-07-31T09:17:04;17.70;99.90
39189;DHT22;24915;50.858;4.376;2023-07-31T09:19:35;17.80;99.90
39189;DHT22;24915;50.858;4.376;2023-07-31T09:22:03;17.80;99.90
39189;DHT22;24915;50.858;4.376;2023-07-31T09:24:30;17.90;99.90
39189;DHT22;24915;50.858;4.376;2023-07-31T09:26:58;18.00;99.90
39189;DHT22;24915;50.858;4.376;2023-07-31T09:29:24;18.00;99.90
39189;DHT22;24915;50.858;4.376;2023-07-31T09:31:51;18.10;99.90
39189;DHT22;24915;50.858;4.376;2023-07-31T09:34:16;18.10;99.90
39189;DHT22;24915;50.858;4.376;2023-07-31T09:36:49;18.10;99.90
39189;DHT22;24915;50.858;4.376;2023-07-31T09:39:17;18.10;99.90
39189;DHT22;24915;50.858;4.376;2023-07-31T09:42:03;18.10;99.90
39189;DHT22;24915;50.858;4.376;2023-07-31T09:44:39;18.00;99.90
39189;DHT22;24915;50.858;4.376;2023-07-31T09:47:24;18.00;99.90
39189;DHT22;24915;50.858;4.376;2023-07-31T09:49:49;18.00;99.90
39189;DHT22;24915;50.858;4.376;2023-07-31T09:52:15;17.90;99.90
39189;DHT22;24915;50.858;4.376;2023-07-31T09:54:41;17.90;99.90
39189;DHT22;24915;50.858;4.376;2023-07-31T09:57:08;17.90;99.90
39189;DHT22;24915;50.858;4.376;2023-07-31T09:59:34;17.80;99.90
39189;DHT22;24915;50.858;4.376;2023-07-31T10:02:00;17.70;99.90
39189;DHT22;24915;50.858;4.376;2023-07-31T10:04:27;17.70;99.90
39189;DHT22;24915;50.858;4.376;2023-07-31T10:06:53;17.70;99.90
39189;DHT22;24915;50.858;4.376;2023-07-31T10:09:21;17.60;99.90
39189;DHT22;24915;50.858;4.376;2023-07-31T10:12:09;17.60;99.90
39189;DHT22;24915;50.858;4.376;2023-07-31T10:14:37;17.60;99.90
39189;DHT22;24915;50.858;4.376;2023-07-31T10:17:05;17.60;99.90
39189;DHT22;24915;50.858;4.376;2023-07-31T10:19:31;17.60;99.90
39189;DHT22;24915;50.858;4.376;2023-07-31T10:21:58;17.60;99.90
39189;DHT22;24915;50.858;4.376;2023-07-31T10:24:24;17.70;99.90
39189;DHT22;24915;50.858;4.376;2023-07-31T10:26:52;17.80;99.90
39189;DHT22;24915;50.858;4.376;2023-07-31T10:29:19;17.80;99.90
39189;DHT22;24915;50.858;4.376;2023-07-31T10:31:46;17.90;99.90
39189;DHT22;24915;50.858;4.376;2023-07-31T10:34:13;17.90;99.90
39189;DHT22;24915;50.858;4.376;2023-07-31T10:36:39;18.00;99.90
39189;DHT22;24915;50.858;4.376;2023-07-31T10:39:34;18.10;99.90
39189;DHT22;24915;50.858;4.376;2023-07-31T10:42:10;18.10;99.90
39189;DHT22;24915;50.858;4.376;2023-07-31T10:44:36;18.10;99.90
39189;DHT22;24915;50.858;4.376;2023-07-31T10:47:02;18.20;99.90
39189;DHT22;24915;50.858;4.376;2023-07-31T10:49:29;18.30;99.90
39189;DHT22;24915;50.858;4.376;2023-07-31T10:51:57;18.30;99.90
39189;DHT22;24915;50.858;4.376;2023-07-31T10:54:22;18.40;99.90
39189;DHT22;24915;50.858;4.376;2023-07-31T10:56:51;18.50;99.90
39189;DHT22;24915;50.858;4.376;2023-07-31T10:59:18;18.50;99.90
39189;DHT22;24915;50.858;4.376;2023-07-31T11:01:56;18.60;99.90
39189;DHT22;24915;50.858;4.376;2023-07-31T11:04:28;18.70;99.90
39189;DHT22;24915;50.858;4.376;2023-07-31T11:07:01;18.80;99.90
39189;DHT22;24915;50.858;4.376;2023-07-31T11:09:31;18.90;99.90
39189;DHT22;24915;50.858;4.376;2023-07-31T11:11:59;18.90;99.90
39189;DHT22;24915;50.858;4.376;2023-07-31T11:14:25;18.90;99.90
39189;DHT22;24915;50.858;4.376;2023-07-31T11:16:51;19.00;99.90
39189;DHT22;24915;50.858;4.376;2023-07-31T11:19:24;19.10;99.90
39189;DHT22;24915;50.858;4.376;2023-07-31T11:21:53;19.10;99.90
39189;DHT22;24915;50.858;4.376;2023-07-31T11:24:19;19.20;99.90
39189;DHT22;24915;50.858;4.376;2023-07-31T11:26:52;19.30;99.90
39189;DHT22;24915;50.858;4.376;2023-07-31T11:29:18;19.20;99.90
39189;DHT22;24915;50.858;4.376;2023-07-31T11:31:45;19.20;99.90
39189;DHT22;24915;50.858;4.376;2023-07-31T11:34:11;19.30;99.90
39189;DHT22;24915;50.858;4.376;2023-07-31T11:36:37;19.30;99.90
39189;DHT22;24915;50.858;4.376;2023-07-31T11:39:10;19.30;99.90
39189;DHT22;24915;50.858;4.376;2023-07-31T11:41:35;19.30;99.90
39189;DHT22;24915;50.858;4.376;2023-07-31T11:44:01;19.30;99.90
39189;DHT22;24915;50.858;4.376;2023-07-31T11:46:30;19.30;99.90
39189;DHT22;24915;50.858;4.376;2023-07-31T11:49:00;19.20;99.90
39189;DHT22;24915;50.858;4.376;2023-07-31T11:51:27;19.20;99.90
39189;DHT22;24915;50.858;4.376;2023-07-31T11:53:57;19.30;99.90
39189;DHT22;24915;50.858;4.376;2023-07-31T11:56:24;19.30;99.90
39189;DHT22;24915;50.858;4.376;2023-07-31T11:58:54;19.40;99.90
39189;DHT22;24915;50.858;4.376;2023-07-31T12:01:21;19.40;99.90
39189;DHT22;24915;50.858;4.376;2023-07-31T12:03:49;19.30;99.90
39189;DHT22;24915;50.858;4.376;2023-07-31T12:06:16;19.40;99.90
39189;DHT22;24915;50.858;4.376;2023-07-31T12:08:42;19.50;99.90
39189;DHT22;24915;50.858;4.376;2023-07-31T12:11:08;19.50;99.90
39189;DHT22;24915;50.858;4.376;2023-07-31T12:13:38;19.50;99.90
39189;DHT22;24915;50.858;4.376;2023-07-31T12:16:04;19.60;99.90
39189;DHT22;24915;50.858;4.376;2023-07-31T12:18:35;19.60;99.90
39189;DHT22;24915;50.858;4.376;2023-07-31T12:21:02;19.60;99.90
39189;DHT22;24915;50.858;4.376;2023-07-31T12:23:31;19.60;99.90
39189;DHT22;24915;50.858;4.376;2023-07-31T12:26:01;19.60;99.90
39189;DHT22;24915;50.858;4.376;2023-07-31T12:28:27;19.60;99.90
39189;DHT22;24915;50.858;4.376;2023-07-31T12:30:57;19.60;99.90
39189;DHT22;24915;50.858;4.376;2023-07-31T12:33:24;19.70;99.90
39189;DHT22;24915;50.858;4.376;2023-07-31T12:35:55;19.70;99.90
39189;DHT22;24915;50.858;4.376;2023-07-31T12:38:21;19.70;99.90
39189;DHT22;24915;50.858;4.376;2023-07-31T12:40:46;19.80;99.90
39189;DHT22;24915;50.858;4.376;2023-07-31T12:43:13;19.80;99.90
39189;DHT22;24915;50.858;4.376;2023-07-31T12:45:39;19.90;99.90
39189;DHT22;24915;50.858;4.376;2023-07-31T12:48:04;19.90;99.90
39189;DHT22;24915;50.858;4.376;2023-07-31T12:50:30;19.90;99.90
39189;DHT22;24915;50.858;4.376;2023-07-31T12:52:57;20.00;99.90
39189;DHT22;24915;50.858;4.376;2023-07-31T12:55:23;20.10;99.90
39189;DHT22;24915;50.858;4.376;2023-07-31T12:57:49;20.10;99.90
39189;DHT22;24915;50.858;4.376;2023-07-31T13:00:16;20.10;99.90
39189;DHT22;24915;50.858;4.376;2023-07-31T13:02:41;20.10;99.90
39189;DHT22;24915;50.858;4.376;2023-07-31T13:05:08;20.00;99.90
39189;DHT22;24915;50.858;4.376;2023-07-31T13:07:33;20.00;99.90
39189;DHT22;24915;50.858;4.376;2023-07-31T13:09:59;19.90;99.90
39189;DHT22;24915;50.858;4.376;2023-07-31T13:12:25;19.80;99.90
39189;DHT22;24915;50.858;4.376;2023-07-31T13:14:51;19.80;99.90
39189;DHT22;24915;50.858;4.376;2023-07-31T13:17:17;19.70;99.90
39189;DHT22;24915;50.858;4.376;2023-07-31T13:19:43;19.70;99.90
39189;DHT22;24915;50.858;4.376;2023-07-31T13:22:08;19.50;99.90
39189;DHT22;24915;50.858;4.376;2023-07-31T13:24:34;19.50;99.90
39189;DHT22;24915;50.858;4.376;2023-07-31T13:27:00;19.40;99.90
39189;DHT22;24915;50.858;4.376;2023-07-31T13:29:25;19.30;99.90
39189;DHT22;24915;50.858;4.376;2023-07-31T13:31:52;19.20;99.90
39189;DHT22;24915;50.858;4.376;2023-07-31T13:34:18;19.00;99.90
39189;DHT22;24915;50.858;4.376;2023-07-31T13:36:44;18.80;99.90
39189;DHT22;24915;50.858;4.376;2023-07-31T13:39:09;18.50;99.90
39189;DHT22;24915;50.858;4.376;2023-07-31T13:41:35;18.40;99.90
39189;DHT22;24915;50.858;4.376;2023-07-31T13:44:01;18.40;99.90
39189;DHT22;24915;50.858;4.376;2023-07-31T13:46:26;18.40;99.90
39189;DHT22;24915;50.858;4.376;2023-07-31T13:48:52;18.30;99.90
39189;DHT22;24915;50.858;4.376;2023-07-31T13:51:24;18.30;99.90
39189;DHT22;24915;50.858;4.376;2023-07-31T13:53:49;18.30;99.90
39189;DHT22;24915;50.858;4.376;2023-07-31T13:56:15;18.30;99.90
39189;DHT22;24915;50.858;4.376;2023-07-31T13:58:41;18.30;99.90
39189;DHT22;24915;50.858;4.376;2023-07-31T14:01:06;18.10;99.90
39189;DHT22;24915;50.858;4.376;2023-07-31T14:03:32;18.10;99.90
39189;DHT22;24915;50.858;4.376;2023-07-31T14:05:57;18.20;99.90
39189;DHT22;24915;50.858;4.376;2023-07-31T14:08:23;18.10;99.90
39189;DHT22;24915;50.858;4.376;2023-07-31T14:10:49;18.10;99.90
39189;DHT22;24915;50.858;4.376;2023-07-31T14:13:14;18.10;99.90
39189;DHT22;24915;50.858;4.376;2023-07-31T14:15:42;18.00;99.90
39189;DHT22;24915;50.858;4.376;2023-07-31T14:18:11;18.00;99.90
39189;DHT22;24915;50.858;4.376;2023-07-31T14:20:36;18.10;99.90
39189;DHT22;24915;50.858;4.376;2023-07-31T14:23:03;18.10;99.90
39189;DHT22;24915;50.858;4.376;2023-07-31T14:25:28;18.10;99.90
39189;DHT22;24915;50.858;4.376;2023-07-31T14:27:54;18.10;99.90
39189;DHT22;24915;50.858;4.376;2023-07-31T14:30:20;18.10;99.90
39189;DHT22;24915;50.858;4.376;2023-07-31T14:32:46;18.10;99.90
39189;DHT22;24915;50.858;4.376;2023-07-31T14:35:12;18.10;99.90
39189;DHT22;24915;50.858;4.376;2023-07-31T14:37:43;18.10;99.90
39189;DHT22;24915;50.858;4.376;2023-07-31T14:40:10;18.10;99.90
39189;DHT22;24915;50.858;4.376;2023-07-31T14:42:36;18.10;99.90
39189;DHT22;24915;50.858;4.376;2023-07-31T14:45:03;18.10;99.90
39189;DHT22;24915;50.858;4.376;2023-07-31T14:47:29;18.00;99.90
39189;DHT22;24915;50.858;4.376;2023-07-31T14:49:56;18.00;99.90
39189;DHT22;24915;50.858;4.376;2023-07-31T14:52:22;18.10;99.90
39189;DHT22;24915;50.858;4.376;2023-07-31T14:54:47;18.10;99.90
39189;DHT22;24915;50.858;4.376;2023-07-31T14:57:13;18.00;99.90
39189;DHT22;24915;50.858;4.376;2023-07-31T14:59:38;18.00;99.90
39189;DHT22;24915;50.858;4.376;2023-07-31T15:02:04;18.00;99.90
39189;DHT22;24915;50.858;4.376;2023-07-31T15:04:30;17.90;99.90
39189;DHT22;24915;50.858;4.376;2023-07-31T15:06:56;17.90;99.90
39189;DHT22;24915;50.858;4.376;2023-07-31T15:09:21;17.90;99.90
39189;DHT22;24915;50.858;4.376;2023-07-31T15:11:47;18.00;99.90
39189;DHT22;24915;50.858;4.376;2023-07-31T15:14:13;17.90;99.90
39189;DHT22;24915;50.858;4.376;2023-07-31T15:16:39;17.90;99.90
39189;DHT22;24915;50.858;4.376;2023-07-31T15:19:04;17.90;99.90
39189;DHT22;24915;50.858;4.376;2023-07-31T15:21:30;17.90;99.90
39189;DHT22;24915;50.858;4.376;2023-07-31T15:23:56;17.90;99.90
39189;DHT22;24915;50.858;4.376;2023-07-31T15:26:21;17.90;99.90
39189;DHT22;24915;50.858;4.376;2023-07-31T15:28:50;17.90;99.90
39189;DHT22;24915;50.858;4.376;2023-07-31T15:31:20;17.90;99.90